sensor_id;sensor_type;location;lat;lon;timestamp;pressure;altitude;pressure_sealevel;temperature;humidity
21102;BME280;10709;49.006;12.100;2023-07-13T00:01:49;48922.34;;;-146.00;83.88
21102;BME280;10709;49.006;12.100;2023-07-13T00:04:18;48926.25;;;-146.00;84.18
21102;BME280;10709;49.006;12.100;2023-07-13T00:06:46;48898.84;;;-146.00;84.77
21102;BME280;10709;49.006;12.100;2023-07-13T00:09:13;48898.84;;;-146.00;85.31
21102;BME280;10709;49.006;12.100;2023-07-13T00:11:41;48906.69;;;-146.00;84.88
21102;BME280;10709;49.006;12.100;2023-07-13T00:14:08;48938.03;;;-146.00;85.30
21102;BME280;10709;49.006;12.100;2023-07-13T00:16:37;48938.03;;;-146.00;85.02
21102;BME280;10709;49.006;12.100;2023-07-13T00:19:04;48920.38;;;-146.00;85.31
21102;BME280;10709;49.006;12.100;2023-07-13T00:21:31;48934.09;;;-146.00;85.66
21102;BME280;10709;49.006;12.100;2023-07-13T00:24:00;48961.53;;;-146.00;85.90
21102;BME280;10709;49.006;12.100;2023-07-13T00:26:27;48934.09;;;-146.00;86.28
21102;BME280;10709;49.006;12.100;2023-07-13T00:28:54;48928.22;;;-146.00;86.40
21102;BME280;10709;49.006;12.100;2023-07-13T00:31:20;48934.09;;;-146.00;86.87
21102;BME280;10709;49.006;12.100;2023-07-13T00:33:49;48961.53;;;-146.00;86.72
21102;BME280;10709;49.006;12.100;2023-07-13T00:36:15;48934.09;;;-146.00;87.02
21102;BME280;10709;49.006;12.100;2023-07-13T00:38:42;48949.78;;;-146.00;87.45
21102;BME280;10709;49.006;12.100;2023-07-13T00:41:10;48932.13;;;-146.00;87.51
21102;BME280;10709;49.006;12.100;2023-07-13T00:43:37;48934.09;;;-146.00;87.65
21102;BME280;10709;49.006;12.100;2023-07-13T00:46:25;48965.44;;;-146.00;87.95
21102;BME280;10709;49.006;12.100;2023-07-13T00:48:54;48969.38;;;-146.00;88.08
21102;BME280;10709;49.006;12.100;2023-07-13T00:51:31;48949.78;;;-146.00;88.34
21102;BME280;10709;49.006;12.100;2023-07-13T00:54:01;48945.84;;;-146.00;88.19
21102;BME280;10709;49.006;12.100;2023-07-13T00:56:30;48965.44;;;-146.00;87.87
21102;BME280;10709;49.006;12.100;2023-07-13T00:58:58;48988.94;;;-146.00;88.43
21102;BME280;10709;49.006;12.100;2023-07-13T01:01:25;48996.78;;;-146.00;88.43
21102;BME280;10709;49.006;12.100;2023-07-13T01:03:52;48953.69;;;-146.00;88.25
21102;BME280;10709;49.006;12.100;2023-07-13T01:06:20;48965.44;;;-146.00;88.27
21102;BME280;10709;49.006;12.100;2023-07-13T01:08:46;48945.84;;;-146.00;88.25
21102;BME280;10709;49.006;12.100;2023-07-13T01:11:18;48949.78;;;-146.00;88.56
21102;BME280;10709;49.006;12.100;2023-07-13T01:13:46;48977.19;;;-146.00;88.56
21102;BME280;10709;49.006;12.100;2023-07-13T01:16:25;48963.50;;;-146.00;88.84
21102;BME280;10709;49.006;12.100;2023-07-13T01:18:52;48947.81;;;-146.00;88.60
21102;BME280;10709;49.006;12.100;2023-07-13T01:21:19;48941.94;;;-146.00;88.76
21102;BME280;10709;49.006;12.100;2023-07-13T01:23:46;48973.28;;;-146.00;89.17
21102;BME280;10709;49.006;12.100;2023-07-13T01:26:12;48979.16;;;-146.00;89.16
21102;BME280;10709;49.006;12.100;2023-07-13T01:28:39;48992.88;;;-146.00;89.44
21102;BME280;10709;49.006;12.100;2023-07-13T01:31:06;48957.59;;;-146.00;90.00
21102;BME280;10709;49.006;12.100;2023-07-13T01:33:37;49008.53;;;-146.00;89.92
21102;BME280;10709;49.006;12.100;2023-07-13T01:36:04;48949.78;;;-146.00;90.28
21102;BME280;10709;49.006;12.100;2023-07-13T01:38:32;49008.53;;;-146.00;91.03
21102;BME280;10709;49.006;12.100;2023-07-13T01:41:00;48987.00;;;-146.00;91.08
21102;BME280;10709;49.006;12.100;2023-07-13T01:43:26;48981.13;;;-146.00;90.37
21102;BME280;10709;49.006;12.100;2023-07-13T01:45:54;48975.25;;;-146.00;91.53
21102;BME280;10709;49.006;12.100;2023-07-13T01:48:34;48988.94;;;-146.00;91.07
21102;BME280;10709;49.006;12.100;2023-07-13T01:51:01;48971.31;;;-146.00;91.08
21102;BME280;10709;49.006;12.100;2023-07-13T01:53:27;49018.34;;;-146.00;90.82
21102;BME280;10709;49.006;12.100;2023-07-13T01:55:54;48963.50;;;-146.00;91.25
21102;BME280;10709;49.006;12.100;2023-07-13T01:58:20;48987.00;;;-146.00;90.92
21102;BME280;10709;49.006;12.100;2023-07-13T02:00:48;48977.19;;;-146.00;91.12
21102;BME280;10709;49.006;12.100;2023-07-13T02:03:16;48981.13;;;-146.00;91.00
21102;BME280;10709;49.006;12.100;2023-07-13T02:05:44;48994.84;;;-146.00;90.58
21102;BME280;10709;49.006;12.100;2023-07-13T02:08:11;48985.03;;;-146.00;91.03
21102;BME280;10709;49.006;12.100;2023-07-13T02:10:37;48994.84;;;-146.00;91.26
21102;BME280;10709;49.006;12.100;2023-07-13T02:13:05;48979.16;;;-146.00;91.35
21102;BME280;10709;49.006;12.100;2023-07-13T02:15:32;48992.88;;;-146.00;91.07
21102;BME280;10709;49.006;12.100;2023-07-13T02:17:58;48957.59;;;-146.00;91.01
21102;BME280;10709;49.006;12.100;2023-07-13T02:20:25;48981.13;;;-146.00;90.77
21102;BME280;10709;49.006;12.100;2023-07-13T02:22:52;48981.13;;;-146.00;90.66
21102;BME280;10709;49.006;12.100;2023-07-13T02:25:19;48992.88;;;-146.00;90.50
21102;BME280;10709;49.006;12.100;2023-07-13T02:27:46;49012.47;;;-146.00;90.37
21102;BME280;10709;49.006;12.100;2023-07-13T02:30:15;48947.81;;;-146.00;90.18
21102;BME280;10709;49.006;12.100;2023-07-13T02:32:41;48973.28;;;-146.00;90.33
21102;BME280;10709;49.006;12.100;2023-07-13T02:35:08;48961.53;;;-146.00;90.35
21102;BME280;10709;49.006;12.100;2023-07-13T02:37:34;48985.03;;;-146.00;90.18
21102;BME280;10709;49.006;12.100;2023-07-13T02:40:01;49016.38;;;-146.00;90.44
21102;BME280;10709;49.006;12.100;2023-07-13T02:42:34;48973.28;;;-146.00;90.18
21102;BME280;10709;49.006;12.100;2023-07-13T02:45:06;48965.44;;;-146.00;90.50
21102;BME280;10709;49.006;12.100;2023-07-13T02:47:33;48961.53;;;-146.00;90.41
21102;BME280;10709;49.006;12.100;2023-07-13T02:50:00;49016.38;;;-146.00;90.22
21102;BME280;10709;49.006;12.100;2023-07-13T02:52:27;48961.53;;;-146.00;90.35
21102;BME280;10709;49.006;12.100;2023-07-13T02:54:53;48996.78;;;-146.00;90.59
21102;BME280;10709;49.006;12.100;2023-07-13T02:57:21;48981.13;;;-146.00;90.50
21102;BME280;10709;49.006;12.100;2023-07-13T02:59:47;48975.25;;;-146.00;90.23
21102;BME280;10709;49.006;12.100;2023-07-13T03:02:14;48992.88;;;-146.00;90.09
21102;BME280;10709;49.006;12.100;2023-07-13T03:04:40;48981.13;;;-146.00;89.70
21102;BME280;10709;49.006;12.100;2023-07-13T03:07:07;48996.78;;;-146.00;89.91
21102;BME280;10709;49.006;12.100;2023-07-13T03:09:35;48996.78;;;-146.00;89.81
21102;BME280;10709;49.006;12.100;2023-07-13T03:12:01;48979.16;;;-146.00;89.81
21102;BME280;10709;49.006;12.100;2023-07-13T03:14:29;48975.25;;;-146.00;90.04
21102;BME280;10709;49.006;12.100;2023-07-13T03:16:56;48988.94;;;-146.00;90.41
21102;BME280;10709;49.006;12.100;2023-07-13T03:19:23;48967.41;;;-146.00;90.48
21102;BME280;10709;49.006;12.100;2023-07-13T03:21:49;48977.19;;;-146.00;90.05
21102;BME280;10709;49.006;12.100;2023-07-13T03:24:16;48969.38;;;-146.00;89.83
21102;BME280;10709;49.006;12.100;2023-07-13T03:26:42;49014.41;;;-146.00;90.00
21102;BME280;10709;49.006;12.100;2023-07-13T03:29:09;49000.72;;;-146.00;89.98
21102;BME280;10709;49.006;12.100;2023-07-13T03:31:37;48990.91;;;-146.00;89.95
21102;BME280;10709;49.006;12.100;2023-07-13T03:34:04;49004.63;;;-146.00;89.66
21102;BME280;10709;49.006;12.100;2023-07-13T03:36:31;48988.94;;;-146.00;89.28
21102;BME280;10709;49.006;12.100;2023-07-13T03:39:02;48965.44;;;-146.00;89.13
21102;BME280;10709;49.006;12.100;2023-07-13T03:41:29;48981.13;;;-146.00;88.79
21102;BME280;10709;49.006;12.100;2023-07-13T03:43:57;48961.53;;;-146.00;89.13
21102;BME280;10709;49.006;12.100;2023-07-13T03:46:24;48961.53;;;-146.00;88.28
21102;BME280;10709;49.006;12.100;2023-07-13T03:48:50;48996.78;;;-146.00;88.71
21102;BME280;10709;49.006;12.100;2023-07-13T03:51:17;48941.94;;;-146.00;88.91
21102;BME280;10709;49.006;12.100;2023-07-13T03:53:46;48953.69;;;-146.00;89.02
21102;BME280;10709;49.006;12.100;2023-07-13T03:56:13;48961.53;;;-146.00;89.60
21102;BME280;10709;49.006;12.100;2023-07-13T03:58:48;48965.44;;;-146.00;89.29
21102;BME280;10709;49.006;12.100;2023-07-13T04:01:17;48996.78;;;-146.00;89.90
21102;BME280;10709;49.006;12.100;2023-07-13T04:03:44;48965.44;;;-146.00;90.13
21102;BME280;10709;49.006;12.100;2023-07-13T04:06:21;48977.19;;;-146.00;89.70
21102;BME280;10709;49.006;12.100;2023-07-13T04:08:50;48981.13;;;-146.00;89.53
21102;BME280;10709;49.006;12.100;2023-07-13T04:11:19;48973.28;;;-146.00;89.90
21102;BME280;10709;49.006;12.100;2023-07-13T04:13:47;48957.59;;;-146.00;89.65
21102;BME280;10709;49.006;12.100;2023-07-13T04:16:15;48985.03;;;-146.00;89.55
21102;BME280;10709;49.006;12.100;2023-07-13T04:18:41;48949.78;;;-146.00;89.62
21102;BME280;10709;49.006;12.100;2023-07-13T04:21:08;48981.13;;;-146.00;89.72
21102;BME280;10709;49.006;12.100;2023-07-13T04:23:38;48953.69;;;-146.00;89.74
21102;BME280;10709;49.006;12.100;2023-07-13T04:26:06;48990.91;;;-146.00;90.00
21102;BME280;10709;49.006;12.100;2023-07-13T04:28:33;49012.47;;;-146.00;91.05
21102;BME280;10709;49.006;12.100;2023-07-13T04:31:00;48945.84;;;-146.00;90.91
21102;BME280;10709;49.006;12.100;2023-07-13T04:33:27;48973.28;;;-146.00;90.85
21102;BME280;10709;49.006;12.100;2023-07-13T04:35:56;48977.19;;;-146.00;90.79
21102;BME280;10709;49.006;12.100;2023-07-13T04:38:25;48985.03;;;-146.00;90.67
21102;BME280;10709;49.006;12.100;2023-07-13T04:40:56;48988.94;;;-146.00;90.54
21102;BME280;10709;49.006;12.100;2023-07-13T04:43:24;48977.19;;;-146.00;89.81
21102;BME280;10709;49.006;12.100;2023-07-13T04:45:51;48965.44;;;-146.00;90.24
21102;BME280;10709;49.006;12.100;2023-07-13T04:48:19;48959.56;;;-146.00;88.89
21102;BME280;10709;49.006;12.100;2023-07-13T04:50:46;48983.06;;;-146.00;89.10
21102;BME280;10709;49.006;12.100;2023-07-13T04:53:13;48926.25;;;-146.00;87.74
21102;BME280;10709;49.006;12.100;2023-07-13T04:55:40;48941.94;;;-146.00;87.75
21102;BME280;10709;49.006;12.100;2023-07-13T04:58:07;48967.41;;;-146.00;87.50
21102;BME280;10709;49.006;12.100;2023-07-13T05:00:33;48969.38;;;-146.00;86.79
21102;BME280;10709;49.006;12.100;2023-07-13T05:03:00;48938.03;;;-146.00;86.72
21102;BME280;10709;49.006;12.100;2023-07-13T05:05:27;48969.38;;;-146.00;86.46
21102;BME280;10709;49.006;12.100;2023-07-13T05:07:53;48969.38;;;-146.00;86.83
21102;BME280;10709;49.006;12.100;2023-07-13T05:10:20;48949.78;;;-146.00;86.61
21102;BME280;10709;49.006;12.100;2023-07-13T05:12:47;48951.72;;;-146.00;85.92
21102;BME280;10709;49.006;12.100;2023-07-13T05:15:14;48934.09;;;-146.00;86.05
21102;BME280;10709;49.006;12.100;2023-07-13T05:17:42;48934.09;;;-146.00;85.36
21102;BME280;10709;49.006;12.100;2023-07-13T05:20:09;48930.19;;;-146.00;84.81
21102;BME280;10709;49.006;12.100;2023-07-13T05:22:35;48900.78;;;-146.00;84.56
21102;BME280;10709;49.006;12.100;2023-07-13T05:25:05;48932.13;;;-146.00;84.08
21102;BME280;10709;49.006;12.100;2023-07-13T05:27:36;48826.34;;;-146.00;81.93
21102;BME280;10709;49.006;12.100;2023-07-13T05:30:03;48883.16;;;-146.00;80.52
21102;BME280;10709;49.006;12.100;2023-07-13T05:32:30;48875.34;;;-146.00;81.10
21102;BME280;10709;49.006;12.100;2023-07-13T05:34:56;48849.88;;;-146.00;80.36
21102;BME280;10709;49.006;12.100;2023-07-13T05:37:23;48867.50;;;-146.00;79.71
21102;BME280;10709;49.006;12.100;2023-07-13T05:39:49;48855.75;;;-146.00;78.55
21102;BME280;10709;49.006;12.100;2023-07-13T05:42:16;48844.00;;;-146.00;77.20
21102;BME280;10709;49.006;12.100;2023-07-13T05:44:43;48824.41;;;-146.00;75.67
21102;BME280;10709;49.006;12.100;2023-07-13T05:47:10;48816.56;;;-146.00;75.87
21102;BME280;10709;49.006;12.100;2023-07-13T05:49:38;48828.31;;;-146.00;74.88
21102;BME280;10709;49.006;12.100;2023-07-13T05:52:05;48796.97;;;-146.00;72.19
21102;BME280;10709;49.006;12.100;2023-07-13T05:54:32;48789.13;;;-146.00;71.94
21102;BME280;10709;49.006;12.100;2023-07-13T05:56:58;48793.06;;;-146.00;71.29
21102;BME280;10709;49.006;12.100;2023-07-13T05:59:25;48777.38;;;-146.00;70.78
21102;BME280;10709;49.006;12.100;2023-07-13T06:01:52;48808.72;;;-146.00;69.33
21102;BME280;10709;49.006;12.100;2023-07-13T06:04:19;48808.72;;;-146.00;69.53
21102;BME280;10709;49.006;12.100;2023-07-13T06:06:47;48802.84;;;-146.00;69.08
21102;BME280;10709;49.006;12.100;2023-07-13T06:09:14;48812.63;;;-146.00;69.15
21102;BME280;10709;49.006;12.100;2023-07-13T06:11:40;48771.50;;;-146.00;69.47
21102;BME280;10709;49.006;12.100;2023-07-13T06:14:07;48808.72;;;-146.00;68.90
21102;BME280;10709;49.006;12.100;2023-07-13T06:16:33;48796.97;;;-146.00;69.18
21102;BME280;10709;49.006;12.100;2023-07-13T06:19:00;48840.06;;;-146.00;68.17
21102;BME280;10709;49.006;12.100;2023-07-13T06:21:26;48796.97;;;-146.00;67.16
21102;BME280;10709;49.006;12.100;2023-07-13T06:23:53;48808.72;;;-146.00;66.23
21102;BME280;10709;49.006;12.100;2023-07-13T06:26:23;48816.56;;;-146.00;66.85
21102;BME280;10709;49.006;12.100;2023-07-13T06:28:51;48765.63;;;-146.00;65.84
21102;BME280;10709;49.006;12.100;2023-07-13T06:31:18;48798.94;;;-146.00;65.52
21102;BME280;10709;49.006;12.100;2023-07-13T06:33:45;48765.63;;;-146.00;65.59
21102;BME280;10709;49.006;12.100;2023-07-13T06:36:12;48808.72;;;-146.00;65.95
21102;BME280;10709;49.006;12.100;2023-07-13T06:38:39;48773.47;;;-146.00;65.10
21102;BME280;10709;49.006;12.100;2023-07-13T06:41:07;48783.25;;;-146.00;64.70
21102;BME280;10709;49.006;12.100;2023-07-13T06:43:36;48798.94;;;-146.00;64.88
21102;BME280;10709;49.006;12.100;2023-07-13T06:46:02;48777.38;;;-146.00;64.26
21102;BME280;10709;49.006;12.100;2023-07-13T06:48:29;48777.38;;;-146.00;63.95
21102;BME280;10709;49.006;12.100;2023-07-13T06:50:56;48804.81;;;-146.00;64.00
21102;BME280;10709;49.006;12.100;2023-07-13T06:53:24;48789.13;;;-146.00;63.02
21102;BME280;10709;49.006;12.100;2023-07-13T06:55:51;48796.97;;;-146.00;63.12
21102;BME280;10709;49.006;12.100;2023-07-13T06:58:19;48804.81;;;-146.00;62.92
21102;BME280;10709;49.006;12.100;2023-07-13T07:00:46;48796.97;;;-146.00;62.10
21102;BME280;10709;49.006;12.100;2023-07-13T07:03:13;48808.72;;;-146.00;61.78
21102;BME280;10709;49.006;12.100;2023-07-13T07:05:40;48814.59;;;-146.00;61.94
21102;BME280;10709;49.006;12.100;2023-07-13T07:08:06;48781.31;;;-146.00;61.74
21102;BME280;10709;49.006;12.100;2023-07-13T07:10:33;48793.06;;;-146.00;61.66
21102;BME280;10709;49.006;12.100;2023-07-13T07:13:01;48793.06;;;-146.00;60.87
21102;BME280;10709;49.006;12.100;2023-07-13T07:15:27;48804.81;;;-146.00;60.36
21102;BME280;10709;49.006;12.100;2023-07-13T07:17:54;48824.41;;;-146.00;59.37
21102;BME280;10709;49.006;12.100;2023-07-13T07:20:21;48804.81;;;-146.00;60.11
21102;BME280;10709;49.006;12.100;2023-07-13T07:22:49;48808.72;;;-146.00;60.13
21102;BME280;10709;49.006;12.100;2023-07-13T07:25:16;48796.97;;;-146.00;60.17
21102;BME280;10709;49.006;12.100;2023-07-13T07:27:43;48816.56;;;-146.00;60.03
21102;BME280;10709;49.006;12.100;2023-07-13T07:30:12;48812.63;;;-146.00;58.16
21102;BME280;10709;49.006;12.100;2023-07-13T07:32:42;48796.97;;;-146.00;57.73
21102;BME280;10709;49.006;12.100;2023-07-13T07:35:23;48836.16;;;-146.00;57.13
21102;BME280;10709;49.006;12.100;2023-07-13T07:37:50;48777.38;;;-146.00;57.79
21102;BME280;10709;49.006;12.100;2023-07-13T07:40:17;48816.56;;;-146.00;58.51
21102;BME280;10709;49.006;12.100;2023-07-13T07:42:46;48836.16;;;-146.00;58.43
21102;BME280;10709;49.006;12.100;2023-07-13T07:45:13;48796.97;;;-146.00;55.43
21102;BME280;10709;49.006;12.100;2023-07-13T07:47:40;48812.63;;;-146.00;56.32
21102;BME280;10709;49.006;12.100;2023-07-13T07:50:08;48800.88;;;-146.00;56.94
21102;BME280;10709;49.006;12.100;2023-07-13T07:52:35;48816.56;;;-146.00;56.52
21102;BME280;10709;49.006;12.100;2023-07-13T07:55:01;48800.88;;;-146.00;56.63
21102;BME280;10709;49.006;12.100;2023-07-13T07:57:31;48832.22;;;-146.00;56.65
21102;BME280;10709;49.006;12.100;2023-07-13T08:00:19;48816.56;;;-146.00;57.01
21102;BME280;10709;49.006;12.100;2023-07-13T08:02:48;48812.63;;;-146.00;55.45
21102;BME280;10709;49.006;12.100;2023-07-13T08:05:18;48802.84;;;-146.00;54.74
21102;BME280;10709;49.006;12.100;2023-07-13T08:07:47;48789.13;;;-146.00;55.02
21102;BME280;10709;49.006;12.100;2023-07-13T08:10:13;48842.03;;;-146.00;55.75
21102;BME280;10709;49.006;12.100;2023-07-13T08:12:40;48800.88;;;-146.00;55.55
21102;BME280;10709;49.006;12.100;2023-07-13T08:15:12;48845.94;;;-146.00;54.45
21102;BME280;10709;49.006;12.100;2023-07-13T08:17:39;48791.09;;;-146.00;54.54
21102;BME280;10709;49.006;12.100;2023-07-13T08:20:06;48816.56;;;-146.00;53.74
21102;BME280;10709;49.006;12.100;2023-07-13T08:22:33;48855.75;;;-146.00;53.93
21102;BME280;10709;49.006;12.100;2023-07-13T08:24:59;48804.81;;;-146.00;52.78
21102;BME280;10709;49.006;12.100;2023-07-13T08:27:27;48828.31;;;-146.00;51.40
21102;BME280;10709;49.006;12.100;2023-07-13T08:29:55;48834.19;;;-146.00;51.12
21102;BME280;10709;49.006;12.100;2023-07-13T08:32:23;48816.56;;;-146.00;52.40
21102;BME280;10709;49.006;12.100;2023-07-13T08:34:50;48844.00;;;-146.00;51.98
21102;BME280;10709;49.006;12.100;2023-07-13T08:37:17;48789.13;;;-146.00;49.67
21102;BME280;10709;49.006;12.100;2023-07-13T08:39:43;48820.47;;;-146.00;48.75
21102;BME280;10709;49.006;12.100;2023-07-13T08:47:31;48808.72;;;-146.00;48.64
21102;BME280;10709;49.006;12.100;2023-07-13T08:50:00;48808.72;;;-146.00;48.94
21102;BME280;10709;49.006;12.100;2023-07-13T08:52:32;48808.72;;;-146.00;48.72
21102;BME280;10709;49.006;12.100;2023-07-13T08:55:22;48804.81;;;-146.00;46.82
21102;BME280;10709;49.006;12.100;2023-07-13T08:57:59;48785.22;;;-146.00;47.59
21102;BME280;10709;49.006;12.100;2023-07-13T09:00:36;48802.84;;;-146.00;48.37
21102;BME280;10709;49.006;12.100;2023-07-13T09:03:20;48840.06;;;-146.00;48.48
21102;BME280;10709;49.006;12.100;2023-07-13T09:05:56;48814.59;;;-146.00;48.17
21102;BME280;10709;49.006;12.100;2023-07-13T09:08:38;48812.63;;;-146.00;48.69
21102;BME280;10709;49.006;12.100;2023-07-13T09:14:33;48832.22;;;-146.00;46.12
21102;BME280;10709;49.006;12.100;2023-07-13T09:17:04;48800.88;;;-146.00;46.58
21102;BME280;10709;49.006;12.100;2023-07-13T09:19:33;48804.81;;;-146.00;46.20
21102;BME280;10709;49.006;12.100;2023-07-13T09:22:04;48814.59;;;-146.00;46.48
21102;BME280;10709;49.006;12.100;2023-07-13T09:24:38;48804.81;;;-146.00;47.74
21102;BME280;10709;49.006;12.100;2023-07-13T09:27:31;48820.47;;;-146.00;48.11
21102;BME280;10709;49.006;12.100;2023-07-13T09:30:11;48836.16;;;-146.00;47.43
21102;BME280;10709;49.006;12.100;2023-07-13T09:32:48;48816.56;;;-146.00;47.84
21102;BME280;10709;49.006;12.100;2023-07-13T09:35:20;48793.06;;;-146.00;48.11
21102;BME280;10709;49.006;12.100;2023-07-13T09:37:49;48816.56;;;-146.00;48.87
21102;BME280;10709;49.006;12.100;2023-07-13T09:40:28;48789.13;;;-146.00;48.39
21102;BME280;10709;49.006;12.100;2023-07-13T09:42:57;48824.41;;;-146.00;49.03
21102;BME280;10709;49.006;12.100;2023-07-13T09:45:29;48836.16;;;-146.00;48.10
21102;BME280;10709;49.006;12.100;2023-07-13T09:48:10;48798.94;;;-146.00;48.34
21102;BME280;10709;49.006;12.100;2023-07-13T09:50:37;48816.56;;;-146.00;47.83
21102;BME280;10709;49.006;12.100;2023-07-13T09:53:11;48818.53;;;-146.00;46.44
21102;BME280;10709;49.006;12.100;2023-07-13T09:55:39;48844.00;;;-146.00;45.13
21102;BME280;10709;49.006;12.100;2023-07-13T09:58:14;48832.22;;;-146.00;44.05
21102;BME280;10709;49.006;12.100;2023-07-13T10:00:43;48785.22;;;-146.00;43.71
21102;BME280;10709;49.006;12.100;2023-07-13T10:03:17;48820.47;;;-146.00;42.75
21102;BME280;10709;49.006;12.100;2023-07-13T10:05:46;48816.56;;;-146.00;42.81
21102;BME280;10709;49.006;12.100;2023-07-13T10:08:25;48808.72;;;-146.00;43.47
21102;BME280;10709;49.006;12.100;2023-07-13T10:10:58;48840.06;;;-146.00;43.62
21102;BME280;10709;49.006;12.100;2023-07-13T10:15:58;48822.44;;;-146.00;43.99
21102;BME280;10709;49.006;12.100;2023-07-13T10:18:26;48824.41;;;-146.00;44.05
21102;BME280;10709;49.006;12.100;2023-07-13T10:21:11;48826.34;;;-146.00;44.25
21102;BME280;10709;49.006;12.100;2023-07-13T10:24:16;48859.66;;;-146.00;44.07
21102;BME280;10709;49.006;12.100;2023-07-13T10:26:50;48820.47;;;-146.00;43.91
21102;BME280;10709;49.006;12.100;2023-07-13T10:29:19;48824.41;;;-146.00;43.38
21102;BME280;10709;49.006;12.100;2023-07-13T10:31:47;48832.22;;;-146.00;42.46
21102;BME280;10709;49.006;12.100;2023-07-13T10:34:14;48808.72;;;-146.00;41.73
21102;BME280;10709;49.006;12.100;2023-07-13T10:36:44;48808.72;;;-146.00;41.14
21102;BME280;10709;49.006;12.100;2023-07-13T10:39:29;48842.03;;;-146.00;41.38
21102;BME280;10709;49.006;12.100;2023-07-13T10:42:03;48806.75;;;-146.00;42.47
21102;BME280;10709;49.006;12.100;2023-07-13T10:44:33;48824.41;;;-146.00;42.35
21102;BME280;10709;49.006;12.100;2023-07-13T10:47:06;48832.22;;;-146.00;41.48
21102;BME280;10709;49.006;12.100;2023-07-13T10:49:35;48822.44;;;-146.00;41.91
21102;BME280;10709;49.006;12.100;2023-07-13T10:52:03;48812.63;;;-146.00;40.44
21102;BME280;10709;49.006;12.100;2023-07-13T10:54:34;48816.56;;;-146.00;40.60
21102;BME280;10709;49.006;12.100;2023-07-13T10:57:19;48832.22;;;-146.00;40.37
21102;BME280;10709;49.006;12.100;2023-07-13T11:00:14;48851.81;;;-146.00;41.14
21102;BME280;10709;49.006;12.100;2023-07-13T11:02:41;48820.47;;;-146.00;40.35
21102;BME280;10709;49.006;12.100;2023-07-13T11:05:28;48816.56;;;-146.00;38.54
21102;BME280;10709;49.006;12.100;2023-07-13T11:08:03;48828.31;;;-146.00;40.06
21102;BME280;10709;49.006;12.100;2023-07-13T11:10:54;48804.81;;;-146.00;38.66
21102;BME280;10709;49.006;12.100;2023-07-13T11:13:55;48842.03;;;-146.00;38.29
21102;BME280;10709;49.006;12.100;2023-07-13T11:18:53;48812.63;;;-146.00;40.35
21102;BME280;10709;49.006;12.100;2023-07-13T11:21:34;48834.19;;;-146.00;40.57
21102;BME280;10709;49.006;12.100;2023-07-13T11:24:14;48832.22;;;-146.00;39.83
21102;BME280;10709;49.006;12.100;2023-07-13T11:26:51;48826.34;;;-146.00;38.64
21102;BME280;10709;49.006;12.100;2023-07-13T11:31:55;48808.72;;;-146.00;39.00
21102;BME280;10709;49.006;12.100;2023-07-13T11:34:38;48800.88;;;-146.00;38.70
21102;BME280;10709;49.006;12.100;2023-07-13T11:37:12;48816.56;;;-146.00;39.08
21102;BME280;10709;49.006;12.100;2023-07-13T11:39:43;48834.19;;;-146.00;38.84
21102;BME280;10709;49.006;12.100;2023-07-13T11:42:15;48828.31;;;-146.00;38.89
21102;BME280;10709;49.006;12.100;2023-07-13T11:44:45;48796.97;;;-146.00;38.85
21102;BME280;10709;49.006;12.100;2023-07-13T11:47:32;48830.28;;;-146.00;37.99
21102;BME280;10709;49.006;12.100;2023-07-13T11:49:59;48844.00;;;-146.00;38.23
21102;BME280;10709;49.006;12.100;2023-07-13T11:52:35;48820.47;;;-146.00;37.64
21102;BME280;10709;49.006;12.100;2023-07-13T11:55:14;48836.16;;;-146.00;39.17
21102;BME280;10709;49.006;12.100;2023-07-13T11:57:51;48822.44;;;-146.00;38.45
21102;BME280;10709;49.006;12.100;2023-07-13T12:00:23;48836.16;;;-146.00;38.06
21102;BME280;10709;49.006;12.100;2023-07-13T12:02:54;48847.91;;;-146.00;37.88
21102;BME280;10709;49.006;12.100;2023-07-13T12:05:22;48824.41;;;-146.00;37.83
21102;BME280;10709;49.006;12.100;2023-07-13T12:07:49;48820.47;;;-146.00;38.22
21102;BME280;10709;49.006;12.100;2023-07-13T12:13:08;48832.22;;;-146.00;38.31
21102;BME280;10709;49.006;12.100;2023-07-13T12:15:38;48808.72;;;-146.00;37.90
21102;BME280;10709;49.006;12.100;2023-07-13T12:18:17;48816.56;;;-146.00;36.87
21102;BME280;10709;49.006;12.100;2023-07-13T12:20:45;48832.22;;;-146.00;37.09
21102;BME280;10709;49.006;12.100;2023-07-13T12:23:23;48812.63;;;-146.00;36.72
21102;BME280;10709;49.006;12.100;2023-07-13T12:25:52;48847.91;;;-146.00;37.52
21102;BME280;10709;49.006;12.100;2023-07-13T12:28:22;48836.16;;;-146.00;36.54
21102;BME280;10709;49.006;12.100;2023-07-13T12:31:04;48808.72;;;-146.00;37.19
21102;BME280;10709;49.006;12.100;2023-07-13T12:33:33;48820.47;;;-146.00;37.80
21102;BME280;10709;49.006;12.100;2023-07-13T12:36:05;48820.47;;;-146.00;37.02
21102;BME280;10709;49.006;12.100;2023-07-13T12:38:32;48826.34;;;-146.00;36.84
21102;BME280;10709;49.006;12.100;2023-07-13T12:41:01;48818.53;;;-146.00;36.58
21102;BME280;10709;49.006;12.100;2023-07-13T12:43:33;48808.72;;;-146.00;37.03
21102;BME280;10709;49.006;12.100;2023-07-13T12:48:30;48828.31;;;-146.00;37.06
21102;BME280;10709;49.006;12.100;2023-07-13T12:51:16;48828.31;;;-146.00;36.22
21102;BME280;10709;49.006;12.100;2023-07-13T12:53:48;48808.72;;;-146.00;37.40
21102;BME280;10709;49.006;12.100;2023-07-13T12:56:21;48851.81;;;-146.00;36.18
21102;BME280;10709;49.006;12.100;2023-07-13T12:58:49;48814.59;;;-146.00;35.38
21102;BME280;10709;49.006;12.100;2023-07-13T13:01:27;48820.47;;;-146.00;35.43
21102;BME280;10709;49.006;12.100;2023-07-13T13:03:54;48824.41;;;-146.00;35.59
21102;BME280;10709;49.006;12.100;2023-07-13T13:06:28;48853.78;;;-146.00;35.72